Time;durP1;ratioP1;P1;durP2;ratioP2;P2;SDS_P1;SDS_P2;PMS_P1;PMS_P2;Temp;Humidity;BMP_temperature;BMP_pressure;BME280_temperature;BME280_humidity;BME280_pressure;Samples;Min_cycle;Max_cycle;Signal;HPM_P1;HPM_P2
2022/10/26 00:00:50;;;;;;;24.38;16.30;;;8.30;99.90;;;;;;4931997;29;20048;-68
2022/10/26 00:03:18;;;;;;;26.75;16.17;;;8.30;99.90;;;;;;4935111;29;20052;-68
2022/10/26 00:05:44;;;;;;;12.75;6.55;;;8.30;99.90;;;;;;4935883;29;20047;-68
2022/10/26 00:08:13;;;;;;;18.88;14.93;;;8.30;99.90;;;;;;4932618;29;20094;-68
2022/10/26 00:10:40;;;;;;;17.55;14.60;;;8.30;99.90;;;;;;4936222;29;20043;-68
2022/10/26 00:13:09;;;;;;;22.23;15.35;;;8.30;99.90;;;;;;4944419;28;20052;-68
2022/10/26 00:15:39;;;;;;;21.83;15.90;;;8.30;99.90;;;;;;4932943;29;20501;-68
2022/10/26 00:18:04;;;;;;;26.00;15.82;;;8.30;99.90;;;;;;4931144;29;20062;-68
2022/10/26 00:20:31;;;;;;;23.17;18.75;;;8.30;99.90;;;;;;4932452;29;20036;-67
2022/10/26 00:22:57;;;;;;;20.05;10.25;;;8.40;99.90;;;;;;4932376;29;20162;-68
2022/10/26 00:25:23;;;;;;;29.48;18.30;;;8.30;99.90;;;;;;4932501;29;20496;-68
2022/10/26 00:27:48;;;;;;;26.55;18.52;;;8.30;99.90;;;;;;4931256;29;20058;-68
2022/10/26 00:30:14;;;;;;;27.60;18.42;;;8.30;99.90;;;;;;4927759;29;20060;-68
2022/10/26 00:32:40;;;;;;;22.25;16.10;;;8.40;99.90;;;;;;4931497;29;20464;-68
2022/10/26 00:35:06;;;;;;;22.63;16.92;;;8.40;99.90;;;;;;4932213;29;20504;-68
2022/10/26 00:37:31;;;;;;;25.30;17.98;;;8.30;99.90;;;;;;4932517;29;20044;-68
2022/10/26 00:39:57;;;;;;;18.95;15.65;;;8.30;99.90;;;;;;4930989;29;20480;-68
2022/10/26 00:42:23;;;;;;;23.50;17.13;;;8.30;99.90;;;;;;4931257;29;20055;-68
2022/10/26 00:44:51;;;;;;;21.02;15.65;;;8.30;99.90;;;;;;4931385;29;20051;-68
2022/10/26 00:47:39;;;;;;;20.27;15.32;;;8.30;99.90;;;;;;4931044;29;20071;-68
2022/10/26 00:50:33;;;;;;;19.95;15.02;;;8.30;99.90;;;;;;4922319;29;20107;-68
2022/10/26 00:53:02;;;;;;;25.88;17.50;;;8.30;99.90;;;;;;4927453;29;20055;-68
2022/10/26 00:55:32;;;;;;;25.25;18.48;;;8.20;99.90;;;;;;4930421;29;20055;-68
2022/10/26 00:57:59;;;;;;;30.70;19.08;;;8.20;99.90;;;;;;4929314;29;20055;-68
2022/10/26 01:00:24;;;;;;;28.75;18.77;;;8.20;99.90;;;;;;4931111;29;20044;-68
2022/10/26 01:02:52;;;;;;;32.25;21.58;;;8.10;99.90;;;;;;4931782;29;20046;-68
2022/10/26 01:05:18;;;;;;;14.43;7.93;;;8.10;99.90;;;;;;4931264;29;20103;-68
2022/10/26 01:07:46;;;;;;;33.20;21.50;;;8.00;99.90;;;;;;4932160;29;20039;-68
2022/10/26 01:10:12;;;;;;;31.70;20.93;;;8.00;99.90;;;;;;4950639;28;20511;-68
2022/10/26 01:12:39;;;;;;;37.05;21.83;;;8.00;99.90;;;;;;4934401;28;20319;-68
2022/10/26 01:15:05;;;;;;;35.85;20.80;;;8.00;99.90;;;;;;4930433;29;20071;-67
2022/10/26 01:17:40;;;;;;;36.45;21.95;;;8.00;99.90;;;;;;4930811;29;20043;-68
2022/10/26 01:20:30;;;;;;;27.38;18.83;;;8.00;99.90;;;;;;4930301;29;20043;-68
2022/10/26 01:23:17;;;;;;;31.52;21.55;;;7.90;99.90;;;;;;4921787;29;20138;-68
2022/10/26 01:25:49;;;;;;;28.50;20.02;;;7.90;99.90;;;;;;4929585;29;20159;-68
2022/10/26 01:28:40;;;;;;;16.70;9.48;;;7.80;99.90;;;;;;4931190;29;20539;-68
2022/10/26 01:31:11;;;;;;;37.65;23.70;;;7.80;99.90;;;;;;4921076;29;20584;-68
2022/10/26 01:33:43;;;;;;;40.42;23.27;;;7.80;99.90;;;;;;4930222;29;20082;-68
2022/10/26 01:36:17;;;;;;;23.77;11.65;;;7.80;99.90;;;;;;4931189;29;20114;-67
2022/10/26 01:38:51;;;;;;;39.58;24.83;;;7.80;99.90;;;;;;4930824;29;20071;-68
2022/10/26 01:41:42;;;;;;;36.05;24.85;;;7.70;99.90;;;;;;4933962;29;20063;-69
2022/10/26 01:44:33;;;;;;;36.90;24.63;;;7.70;99.90;;;;;;4931154;29;20048;-68
2022/10/26 01:47:01;;;;;;;17.92;8.02;;;7.80;99.90;;;;;;4923650;29;20054;-68
2022/10/26 01:49:32;;;;;;;19.58;8.90;;;7.70;99.90;;;;;;4929290;29;20051;-68
2022/10/26 01:51:58;;;;;;;32.00;20.48;;;7.70;99.90;;;;;;4930991;29;20044;-69
2022/10/26 01:54:24;;;;;;;26.40;20.15;;;7.60;99.90;;;;;;4930702;29;20055;-69
2022/10/26 01:56:58;;;;;;;31.73;21.50;;;7.70;99.90;;;;;;4929501;29;20054;-69
2022/10/26 01:59:33;;;;;;;29.90;21.45;;;7.70;99.90;;;;;;4930966;29;20432;-70
2022/10/26 02:02:27;;;;;;;22.52;9.57;;;7.70;99.90;;;;;;4930075;29;20123;-69
2022/10/26 02:05:02;;;;;;;33.85;23.90;;;7.70;99.90;;;;;;4929028;29;20957;-69
2022/10/26 02:07:37;;;;;;;21.27;11.13;;;7.70;99.90;;;;;;4931931;29;20051;-69
2022/10/26 02:10:19;;;;;;;20.50;8.13;;;7.70;99.90;;;;;;4931825;29;20058;-69
2022/10/26 02:12:51;;;;;;;51.60;29.45;;;7.60;99.90;;;;;;4931856;28;20291;-68
2022/10/26 02:15:21;;;;;;;47.17;27.67;;;7.70;99.90;;;;;;4926777;29;20576;-68
2022/10/26 02:17:57;;;;;;;20.38;9.20;;;7.80;99.90;;;;;;4930947;29;20123;-69
2022/10/26 02:20:29;;;;;;;33.40;9.25;;;7.80;99.90;;;;;;4930456;29;20111;-68
2022/10/26 02:22:56;;;;;;;56.90;34.50;;;7.80;99.90;;;;;;4928430;29;20047;-68
2022/10/26 02:25:27;;;;;;;26.70;13.07;;;7.90;99.90;;;;;;4928205;29;20108;-69
2022/10/26 02:28:03;;;;;;;20.20;8.70;;;8.00;99.90;;;;;;4928813;29;20054;-69
2022/10/26 02:30:29;;;;;;;19.52;8.07;;;8.00;99.90;;;;;;4928491;29;20107;-69
2022/10/26 02:32:57;;;;;;;22.88;9.50;;;8.10;99.90;;;;;;4930494;29;20052;-69
2022/10/26 02:35:28;;;;;;;26.02;11.35;;;8.10;99.90;;;;;;4930671;29;20083;-68
2022/10/26 02:37:58;;;;;;;73.70;41.65;;;8.20;99.90;;;;;;4929047;29;20519;-69
2022/10/26 02:40:26;;;;;;;27.23;12.43;;;8.30;99.90;;;;;;4928098;29;20091;-69
2022/10/26 02:42:54;;;;;;;64.13;38.28;;;8.30;99.90;;;;;;4945788;29;20130;-69
2022/10/26 02:45:24;;;;;;;69.28;42.25;;;8.30;99.90;;;;;;4931236;29;20051;-69
2022/10/26 02:47:51;;;;;;;72.90;39.17;;;8.40;99.90;;;;;;4929698;29;20126;-69
2022/10/26 02:50:20;;;;;;;74.63;39.15;;;8.40;99.90;;;;;;4930304;28;20079;-69
2022/10/26 02:53:23;;;;;;;72.32;43.38;;;8.40;99.90;;;;;;4929300;29;20178;-69
2022/10/26 02:55:50;;;;;;;77.82;45.75;;;8.50;99.90;;;;;;4913331;29;20417;-69
2022/10/26 02:58:44;;;;;;;65.90;41.70;;;8.60;99.90;;;;;;4931216;29;20047;-69
2022/10/26 03:01:10;;;;;;;83.40;42.47;;;8.60;99.90;;;;;;4929140;29;20071;-69
2022/10/26 03:03:35;;;;;;;30.60;14.02;;;8.60;99.90;;;;;;4928481;29;20393;-69
2022/10/26 03:06:01;;;;;;;32.33;14.93;;;8.60;99.90;;;;;;4932254;29;20062;-69
2022/10/26 03:08:27;;;;;;;22.58;12.98;;;8.60;99.90;;;;;;4933108;29;20052;-69
2022/10/26 03:10:52;;;;;;;31.85;10.38;;;8.60;99.90;;;;;;4934407;29;20056;-69
2022/10/26 03:13:18;;;;;;;33.72;13.27;;;8.70;99.90;;;;;;4931781;29;20055;-69
2022/10/26 03:15:44;;;;;;;84.72;45.50;;;8.60;99.90;;;;;;4933372;29;20071;-69
2022/10/26 03:18:09;;;;;;;79.90;44.97;;;8.70;99.90;;;;;;4932224;29;20165;-69
2022/10/26 03:20:35;;;;;;;32.97;14.00;;;8.70;99.90;;;;;;4933491;29;20059;-69
2022/10/26 03:23:01;;;;;;;76.75;44.67;;;8.80;99.90;;;;;;4933148;29;20062;-69
2022/10/26 03:25:26;;;;;;;80.53;44.92;;;8.70;99.90;;;;;;4947360;28;20051;-69
2022/10/26 03:28:00;;;;;;;78.75;46.25;;;8.80;99.90;;;;;;4932065;29;20091;-69
2022/10/26 03:30:27;;;;;;;38.50;16.20;;;8.80;99.90;;;;;;4931451;29;20058;-70
2022/10/26 03:32:53;;;;;;;22.70;12.50;;;8.80;99.90;;;;;;4932206;29;20042;-69
2022/10/26 03:35:18;;;;;;;28.55;13.20;;;8.80;99.90;;;;;;4917243;29;20047;-69
2022/10/26 03:37:44;;;;;;;82.20;44.25;;;8.80;99.90;;;;;;4930925;29;20139;-69
2022/10/26 03:40:10;;;;;;;94.70;45.80;;;8.80;99.90;;;;;;4933361;29;20052;-69
2022/10/26 03:42:36;;;;;;;88.90;43.35;;;8.90;99.90;;;;;;4932213;29;20048;-70
2022/10/26 03:45:03;;;;;;;82.95;44.30;;;8.90;99.90;;;;;;4932771;29;20099;-69
2022/10/26 03:47:29;;;;;;;66.15;40.40;;;8.90;99.90;;;;;;4934009;29;20119;-69
2022/10/26 03:49:55;;;;;;;70.75;41.67;;;8.80;99.90;;;;;;4932416;29;20103;-70
2022/10/26 03:52:23;;;;;;;27.95;14.25;;;8.90;99.90;;;;;;4932140;29;20055;-69
2022/10/26 03:54:50;;;;;;;26.58;12.00;;;8.80;99.90;;;;;;4928471;29;20051;-69
2022/10/26 03:57:15;;;;;;;70.60;40.70;;;8.80;99.90;;;;;;4930001;29;20048;-70
2022/10/26 03:59:41;;;;;;;70.20;38.17;;;8.70;99.90;;;;;;4930228;29;20048;-69
2022/10/26 04:02:07;;;;;;;70.28;38.50;;;8.70;99.90;;;;;;4915447;29;20127;-69
2022/10/26 04:04:32;;;;;;;24.02;12.38;;;8.70;99.90;;;;;;4932601;29;20131;-69
2022/10/26 04:06:58;;;;;;;22.00;11.05;;;8.60;99.90;;;;;;4944975;28;20043;-69
2022/10/26 04:09:24;;;;;;;29.25;11.70;;;8.50;99.90;;;;;;4931538;29;20052;-70
2022/10/26 04:11:51;;;;;;;28.95;12.95;;;8.50;99.90;;;;;;4930351;29;20043;-69
2022/10/26 04:14:16;;;;;;;51.50;34.85;;;8.30;99.90;;;;;;4946520;29;20488;-69
2022/10/26 04:16:42;;;;;;;24.60;13.43;;;8.40;99.90;;;;;;4931419;29;20072;-69
2022/10/26 04:19:08;;;;;;;62.75;36.97;;;8.40;99.90;;;;;;4931259;29;20102;-69
2022/10/26 04:21:34;;;;;;;28.80;13.95;;;8.40;99.90;;;;;;4931986;29;20051;-69
2022/10/26 04:24:00;;;;;;;65.75;38.70;;;8.30;99.90;;;;;;4930474;29;20061;-70
2022/10/26 04:26:26;;;;;;;24.50;12.35;;;8.40;99.90;;;;;;4931095;29;20051;-69
2022/10/26 04:28:52;;;;;;;30.90;12.27;;;8.30;99.90;;;;;;4931199;29;20051;-70
2022/10/26 04:31:18;;;;;;;27.48;14.15;;;8.30;99.90;;;;;;4932654;29;20060;-69
2022/10/26 04:33:43;;;;;;;66.97;39.78;;;8.40;99.90;;;;;;4932150;29;20051;-69
2022/10/26 04:36:09;;;;;;;77.10;40.00;;;8.40;99.90;;;;;;4946242;28;20048;-69
2022/10/26 04:38:35;;;;;;;65.95;38.97;;;8.50;99.90;;;;;;4947226;29;20055;-69
2022/10/26 04:41:01;;;;;;;75.00;43.20;;;8.50;99.90;;;;;;4930748;29;20087;-70
2022/10/26 04:43:27;;;;;;;76.30;41.92;;;8.50;99.90;;;;;;4930204;29;20044;-69
2022/10/26 04:45:56;;;;;;;78.30;45.83;;;8.60;99.90;;;;;;4924448;29;20043;-69
2022/10/26 04:48:23;;;;;;;75.80;42.83;;;8.70;99.90;;;;;;4931121;29;20067;-69
2022/10/26 04:50:49;;;;;;;89.20;46.30;;;8.60;99.90;;;;;;4932020;29;20584;-69
2022/10/26 04:53:14;;;;;;;38.22;14.88;;;8.70;99.90;;;;;;4932040;29;20075;-70
2022/10/26 04:55:40;;;;;;;88.95;46.00;;;8.70;99.90;;;;;;4932528;29;20497;-69
2022/10/26 04:58:06;;;;;;;49.65;15.27;;;8.70;99.90;;;;;;4949055;28;20047;-69
2022/10/26 05:00:32;;;;;;;28.83;13.50;;;8.70;99.90;;;;;;4933149;29;20081;-69
2022/10/26 05:03:02;;;;;;;77.35;44.92;;;8.80;99.90;;;;;;4935664;28;20110;-69
2022/10/26 05:05:30;;;;;;;67.07;40.92;;;8.80;99.90;;;;;;4929860;29;20572;-69
2022/10/26 05:07:56;;;;;;;81.25;45.00;;;8.90;99.90;;;;;;4931475;29;20064;-70
2022/10/26 05:10:23;;;;;;;36.70;12.80;;;8.90;99.90;;;;;;4935216;29;20503;-70
2022/10/26 05:12:53;;;;;;;21.45;11.07;;;9.00;99.90;;;;;;4945944;29;20078;-69
2022/10/26 05:15:19;;;;;;;77.07;42.55;;;8.90;99.90;;;;;;4929278;29;20062;-69
2022/10/26 05:17:45;;;;;;;74.65;41.28;;;8.90;99.90;;;;;;4934989;29;20061;-70
2022/10/26 05:20:12;;;;;;;84.03;42.95;;;8.90;99.90;;;;;;4929953;29;20043;-69
2022/10/26 05:22:39;;;;;;;35.47;17.85;;;9.00;99.90;;;;;;4930138;29;20071;-69
2022/10/26 05:25:05;;;;;;;19.70;12.48;;;9.00;99.90;;;;;;4931163;29;20052;-70
2022/10/26 05:27:31;;;;;;;28.77;12.65;;;8.90;99.90;;;;;;4929218;29;20075;-70
2022/10/26 05:29:56;;;;;;;71.28;43.10;;;8.90;99.90;;;;;;4930055;29;20532;-69
2022/10/26 05:32:22;;;;;;;19.70;12.10;;;9.00;99.90;;;;;;4930371;29;20064;-70
2022/10/26 05:34:47;;;;;;;75.20;40.80;;;9.00;99.90;;;;;;4929513;29;20080;-70
2022/10/26 05:37:13;;;;;;;70.70;41.72;;;9.00;99.90;;;;;;4929760;29;20048;-69
2022/10/26 05:39:39;;;;;;;66.25;37.60;;;9.00;99.90;;;;;;4930485;29;20079;-69
2022/10/26 05:42:04;;;;;;;76.30;39.70;;;9.00;99.90;;;;;;4929227;29;20058;-69
2022/10/26 05:44:30;;;;;;;72.22;40.55;;;9.00;99.90;;;;;;4929278;29;20138;-69
2022/10/26 05:46:55;;;;;;;69.72;40.58;;;9.10;99.90;;;;;;4930565;29;20051;-69
2022/10/26 05:49:21;;;;;;;39.28;17.08;;;9.10;99.90;;;;;;4928982;29;20465;-69
2022/10/26 05:51:47;;;;;;;61.67;40.03;;;9.20;99.90;;;;;;4929325;29;20297;-69
2022/10/26 05:54:12;;;;;;;60.55;35.45;;;9.00;99.90;;;;;;4928672;29;20565;-69
2022/10/26 05:56:39;;;;;;;60.17;36.53;;;9.10;99.90;;;;;;4926555;29;20039;-70
2022/10/26 05:59:15;;;;;;;28.67;13.45;;;9.10;99.90;;;;;;4930529;29;20054;-69
2022/10/26 06:02:02;;;;;;;31.55;10.45;;;9.10;99.90;;;;;;4924270;29;20036;-70
2022/10/26 06:04:42;;;;;;;64.00;35.42;;;9.10;99.90;;;;;;4928364;29;20492;-70
2022/10/26 06:07:13;;;;;;;58.45;35.58;;;9.10;99.90;;;;;;4920191;29;20785;-70
2022/10/26 06:09:39;;;;;;;23.23;12.00;;;9.20;99.90;;;;;;4929026;29;20393;-70
2022/10/26 06:12:09;;;;;;;30.27;11.75;;;9.20;99.90;;;;;;4924470;29;20058;-71
2022/10/26 06:14:35;;;;;;;55.05;33.90;;;9.20;99.90;;;;;;4928540;29;20073;-69
2022/10/26 06:17:13;;;;;;;58.00;33.40;;;9.20;99.90;;;;;;4927078;29;20059;-69
2022/10/26 06:19:54;;;;;;;58.00;33.58;;;9.30;99.90;;;;;;4930260;29;20051;-69
2022/10/26 06:22:45;;;;;;;60.83;36.42;;;9.40;99.90;;;;;;4942544;28;20058;-69
2022/10/26 06:25:17;;;;;;;68.22;33.83;;;9.40;99.90;;;;;;4931419;29;20488;-69
2022/10/26 06:27:59;;;;;;;60.70;34.83;;;9.40;99.90;;;;;;4935541;29;20102;-69
2022/10/26 06:30:24;;;;;;;53.97;33.33;;;9.40;99.90;;;;;;4929586;29;20086;-69
2022/10/26 06:32:54;;;;;;;62.70;33.50;;;9.50;99.90;;;;;;4928499;29;20416;-69
2022/10/26 06:35:39;;;;;;;52.95;31.83;;;9.50;99.90;;;;;;4928706;29;20059;-70
2022/10/26 06:38:13;;;;;;;56.95;33.35;;;9.50;99.90;;;;;;4943062;29;20715;-69
2022/10/26 06:40:42;;;;;;;50.35;32.63;;;9.50;99.90;;;;;;4931560;29;20044;-69
2022/10/26 06:43:23;;;;;;;58.10;31.80;;;9.50;99.90;;;;;;4931088;29;20093;-69
2022/10/26 06:46:06;;;;;;;52.45;30.48;;;9.60;99.90;;;;;;4932807;29;20099;-69
2022/10/26 06:48:43;;;;;;;51.58;31.30;;;9.70;99.90;;;;;;4923521;29;20052;-69
2022/10/26 06:51:13;;;;;;;73.50;31.83;;;9.70;99.90;;;;;;4945601;29;20051;-69
2022/10/26 06:53:46;;;;;;;48.35;29.20;;;9.70;99.90;;;;;;4934279;29;20051;-69
2022/10/26 06:56:13;;;;;;;28.85;11.98;;;9.70;99.90;;;;;;4928354;29;20055;-69
2022/10/26 06:58:39;;;;;;;51.10;31.38;;;9.70;99.90;;;;;;4944325;28;20048;-69
2022/10/26 07:01:06;;;;;;;51.92;29.85;;;9.70;99.90;;;;;;4947854;29;20051;-69
2022/10/26 07:03:31;;;;;;;44.03;28.45;;;9.80;99.90;;;;;;4932779;29;20047;-69
2022/10/26 07:05:57;;;;;;;48.47;28.52;;;9.70;99.90;;;;;;4932594;29;20046;-69
2022/10/26 07:08:23;;;;;;;42.97;26.02;;;9.80;99.90;;;;;;4948776;28;20110;-69
2022/10/26 07:10:48;;;;;;;43.67;27.45;;;9.80;99.90;;;;;;4941165;29;20377;-69
2022/10/26 07:13:14;;;;;;;43.75;28.25;;;9.80;99.90;;;;;;4934295;29;20441;-69
2022/10/26 07:15:41;;;;;;;45.75;29.27;;;9.80;99.90;;;;;;4932346;29;20055;-70
2022/10/26 07:18:08;;;;;;;42.28;26.95;;;9.90;99.90;;;;;;4931254;29;20518;-69
2022/10/26 07:20:38;;;;;;;43.33;26.50;;;9.80;99.90;;;;;;4932265;29;20044;-69
2022/10/26 07:23:07;;;;;;;44.25;25.98;;;9.80;99.90;;;;;;4927908;29;20062;-69
2022/10/26 07:25:37;;;;;;;40.35;25.40;;;10.10;99.90;;;;;;4935078;28;20578;-69
2022/10/26 07:28:09;;;;;;;42.58;26.65;;;9.80;99.90;;;;;;4946902;29;20056;-69
2022/10/26 07:30:35;;;;;;;49.75;28.30;;;9.80;99.90;;;;;;4932191;29;20424;-69
2022/10/26 07:33:03;;;;;;;43.65;28.48;;;9.80;99.90;;;;;;4931355;29;20792;-69
2022/10/26 07:35:29;;;;;;;40.13;26.30;;;9.80;99.90;;;;;;4931935;29;20071;-69
2022/10/26 07:37:59;;;;;;;38.42;26.15;;;9.90;99.90;;;;;;4932673;29;20413;-69
2022/10/26 07:40:26;;;;;;;46.65;27.23;;;10.00;99.90;;;;;;4947653;29;20096;-69
2022/10/26 07:42:51;;;;;;;53.97;25.83;;;10.00;99.90;;;;;;4932510;29;20058;-69
2022/10/26 07:45:18;;;;;;;44.00;26.30;;;10.10;99.90;;;;;;4948175;29;20412;-69
2022/10/26 07:47:45;;;;;;;45.35;25.35;;;10.20;99.90;;;;;;4947293;28;20054;-70
2022/10/26 07:50:11;;;;;;;48.40;27.00;;;10.30;99.90;;;;;;4931609;29;20492;-69
2022/10/26 07:52:40;;;;;;;42.85;25.52;;;10.30;99.90;;;;;;4920494;29;20529;-69
2022/10/26 07:55:05;;;;;;;;;;;10.40;99.90;;;;;;4932190;29;20055;-69
2022/10/26 07:57:33;;;;;;;45.90;25.80;;;10.50;99.90;;;;;;4932785;29;20311;-69
2022/10/26 07:59:59;;;;;;;40.33;26.13;;;10.50;99.90;;;;;;4931634;29;20077;-69
2022/10/26 08:02:24;;;;;;;40.67;23.92;;;10.50;99.90;;;;;;4932348;29;20054;-69
2022/10/26 08:04:50;;;;;;;41.05;22.77;;;10.60;99.90;;;;;;4944437;29;20142;-69
2022/10/26 08:07:15;;;;;;;35.88;23.27;;;10.70;99.90;;;;;;4931886;29;20059;-69
2022/10/26 08:09:42;;;;;;;60.90;26.25;;;10.80;99.90;;;;;;4932930;29;20123;-69
2022/10/26 08:12:07;;;;;;;47.35;24.52;;;10.90;99.90;;;;;;4961022;28;20138;-69
2022/10/26 08:14:33;;;;;;;37.47;22.98;;;11.00;99.90;;;;;;4930425;29;20552;-69
2022/10/26 08:16:58;;;;;;;32.92;19.65;;;11.10;99.90;;;;;;4931616;29;20449;-69
2022/10/26 08:19:24;;;;;;;35.95;21.38;;;11.00;99.90;;;;;;4933261;29;20433;-69
2022/10/26 08:21:50;;;;;;;35.10;21.27;;;11.10;99.90;;;;;;4930590;29;20039;-69
2022/10/26 08:24:15;;;;;;;51.38;22.70;;;11.20;99.90;;;;;;4931720;29;20103;-69
2022/10/26 08:26:41;;;;;;;31.30;20.30;;;11.30;99.90;;;;;;4932409;29;20596;-69
2022/10/26 08:29:07;;;;;;;28.25;19.40;;;11.30;99.90;;;;;;4946720;28;20496;-69
2022/10/26 08:31:33;;;;;;;30.73;19.95;;;11.40;99.90;;;;;;4929681;29;20058;-69
2022/10/26 08:34:00;;;;;;;36.20;19.13;;;11.40;99.90;;;;;;4941767;29;20055;-68
2022/10/26 08:36:27;;;;;;;36.70;20.77;;;11.40;99.90;;;;;;4931503;29;20047;-69
2022/10/26 08:38:53;;;;;;;34.15;22.10;;;11.50;99.90;;;;;;4946875;29;20063;-69
2022/10/26 08:41:35;;;;;;;42.10;20.20;;;11.50;99.90;;;;;;4931509;29;20047;-68
2022/10/26 08:44:09;;;;;;;34.88;19.80;;;11.50;99.90;;;;;;4931930;29;20047;-68
2022/10/26 08:46:40;;;;;;;33.88;19.00;;;11.50;99.90;;;;;;4929964;29;20390;-69
2022/10/26 08:49:28;;;;;;;32.20;19.08;;;11.60;99.90;;;;;;4931835;29;20134;-68
2022/10/26 08:51:56;;;;;;;;;;;11.70;99.90;;;;;;4947413;28;20050;-69
2022/10/26 08:54:25;;;;;;;;;;;11.70;99.90;;;;;;4931670;29;20384;-68
2022/10/26 08:56:57;;;;;;;32.95;20.52;;;11.70;99.90;;;;;;4935125;29;20402;-69
2022/10/26 08:59:54;;;;;;;29.70;19.90;;;11.70;99.90;;;;;;4931820;29;20099;-68
2022/10/26 09:02:20;;;;;;;30.75;18.02;;;12.20;99.90;;;;;;4929231;29;20051;-68
2022/10/26 09:04:45;;;;;;;31.00;17.92;;;11.90;99.90;;;;;;4937833;29;20051;-68
2022/10/26 09:07:20;;;;;;;30.52;19.33;;;12.00;99.90;;;;;;4931837;29;20052;-69
2022/10/26 09:09:45;;;;;;;27.50;18.13;;;12.20;99.90;;;;;;4930663;29;20487;-68
2022/10/26 09:12:26;;;;;;;42.22;19.60;;;12.30;99.90;;;;;;4935234;29;20048;-68
2022/10/26 09:14:52;;;;;;;28.33;18.02;;;12.30;99.90;;;;;;4930070;29;20416;-69
2022/10/26 09:17:33;;;;;;;20.08;15.00;;;12.50;99.90;;;;;;4946279;28;20064;-69
2022/10/26 09:20:08;;;;;;;26.92;16.27;;;12.70;99.90;;;;;;4929174;29;20909;-68
2022/10/26 09:22:50;;;;;;;24.80;14.50;;;13.00;99.90;;;;;;4930506;29;20051;-68
2022/10/26 09:25:26;;;;;;;20.35;11.75;;;13.10;99.90;;;;;;4929855;29;20176;-68
2022/10/26 09:27:57;;;;;;;24.42;11.05;;;13.40;99.90;;;;;;4930360;29;20110;-68
2022/10/26 09:30:23;;;;;;;18.98;10.57;;;13.60;99.90;;;;;;4931630;29;20059;-69
2022/10/26 09:32:57;;;;;;;17.77;10.07;;;13.90;99.90;;;;;;4930375;29;20770;-68
2022/10/26 09:35:49;;;;;;;25.85;10.20;;;14.00;99.90;;;;;;4945155;28;20052;-68
2022/10/26 09:38:23;;;;;;;19.25;9.07;;;14.20;99.90;;;;;;4930716;29;20051;-68
2022/10/26 09:40:56;;;;;;;12.98;8.02;;;14.40;99.90;;;;;;4931291;29;20051;-68
2022/10/26 09:43:49;;;;;;;13.60;7.63;;;14.60;99.90;;;;;;4930875;29;20135;-68
2022/10/26 09:46:23;;;;;;;9.32;7.15;;;14.90;99.90;;;;;;4927806;29;20100;-68
2022/10/26 09:49:06;;;;;;;13.13;7.95;;;15.10;99.90;;;;;;4930286;29;20051;-68
2022/10/26 09:51:35;;;;;;;11.43;6.35;;;15.20;99.90;;;;;;4930709;29;20050;-70
2022/10/26 09:54:04;;;;;;;19.10;7.97;;;15.40;99.90;;;;;;4928640;29;20048;-69
2022/10/26 09:56:30;;;;;;;14.35;8.35;;;15.60;99.90;;;;;;4925025;29;20082;-69
2022/10/26 09:59:03;;;;;;;13.75;6.93;;;15.80;99.90;;;;;;4929493;29;20052;-69
2022/10/26 10:01:33;;;;;;;16.65;9.40;;;15.90;99.90;;;;;;4930422;29;20044;-69
2022/10/26 10:04:24;;;;;;;21.15;7.72;;;15.90;99.90;;;;;;4929522;29;20044;-69
2022/10/26 10:07:02;;;;;;;14.52;7.20;;;16.00;99.90;;;;;;4930945;29;20048;-69
2022/10/26 10:09:28;;;;;;;20.17;9.43;;;16.00;99.90;;;;;;4929161;29;20044;-68
2022/10/26 10:11:57;;;;;;;13.70;7.70;;;16.00;99.90;;;;;;4932927;29;20051;-67
2022/10/26 10:14:26;;;;;;;13.02;8.10;;;15.90;99.90;;;;;;4926745;29;20524;-69
2022/10/26 10:16:56;;;;;;;24.50;9.10;;;15.90;99.90;;;;;;4929440;29;20056;-68
2022/10/26 10:19:28;;;;;;;14.27;8.80;;;15.90;99.90;;;;;;4930562;29;20059;-67
2022/10/26 10:21:57;;;;;;;20.73;9.68;;;15.90;99.90;;;;;;4929528;29;20079;-67
2022/10/26 10:24:23;;;;;;;14.27;8.77;;;15.90;99.90;;;;;;4930516;29;20055;-67
2022/10/26 10:26:56;;;;;;;17.58;8.35;;;16.00;99.90;;;;;;4927879;29;20040;-67
2022/10/26 10:29:38;;;;;;;15.30;8.80;;;16.10;99.90;;;;;;4927337;29;20091;-67
2022/10/26 10:32:04;;;;;;;14.60;8.60;;;16.20;99.90;;;;;;4924514;29;20058;-67
2022/10/26 10:34:31;;;;;;;11.85;7.75;;;16.30;99.90;;;;;;4929823;29;20040;-67
2022/10/26 10:36:58;;;;;;;12.88;8.07;;;16.30;99.90;;;;;;4927784;29;20102;-67
2022/10/26 10:39:41;;;;;;;13.63;8.75;;;16.50;99.90;;;;;;4924698;29;20116;-68
2022/10/26 10:42:26;;;;;;;12.93;7.93;;;16.60;99.90;;;;;;4926855;29;20083;-67
2022/10/26 10:44:54;;;;;;;12.18;7.97;;;16.70;99.90;;;;;;4928273;29;20048;-67
2022/10/26 10:47:29;;;;;;;20.27;8.52;;;16.70;99.90;;;;;;4924336;29;20047;-67
2022/10/26 10:50:00;;;;;;;21.77;8.88;;;16.70;99.90;;;;;;4928179;29;20058;-67
2022/10/26 10:52:29;;;;;;;10.98;7.20;;;16.70;99.90;;;;;;4928608;29;20059;-67
2022/10/26 10:55:13;;;;;;;17.05;7.63;;;16.70;99.90;;;;;;4930196;29;20051;-67
2022/10/26 10:57:54;;;;;;;14.25;7.28;;;16.90;99.90;;;;;;4929455;29;20056;-67
2022/10/26 11:00:21;;;;;;;13.75;8.45;;;16.90;99.90;;;;;;4929935;29;20107;-67
2022/10/26 11:03:04;;;;;;;12.10;7.65;;;17.10;99.90;;;;;;4933667;29;20066;-68
2022/10/26 11:05:41;;;;;;;8.80;6.30;;;17.10;99.90;;;;;;4928685;29;20056;-67
2022/10/26 11:08:21;;;;;;;16.83;7.35;;;17.30;99.90;;;;;;4932290;29;20128;-67
2022/10/26 11:10:58;;;;;;;11.75;6.75;;;17.30;99.90;;;;;;4930396;29;20051;-67
2022/10/26 11:13:30;;;;;;;18.92;7.63;;;17.40;99.90;;;;;;4930924;28;20453;-67
2022/10/26 11:16:01;;;;;;;13.60;7.60;;;17.50;99.90;;;;;;4923439;29;20100;-67
2022/10/26 11:18:33;;;;;;;13.75;7.10;;;17.60;99.90;;;;;;4942674;29;20130;-68
2022/10/26 11:21:28;;;;;;;10.77;7.07;;;17.80;99.90;;;;;;4921162;29;20067;-67
2022/10/26 11:24:58;;;;;;;15.63;7.68;;;17.80;99.90;;;;;;4927706;29;20627;-68
2022/10/26 11:27:42;;;;;;;15.27;7.38;;;17.90;99.90;;;;;;4867582;29;20055;-68
2022/10/26 11:30:24;;;;;;;16.17;7.10;;;18.00;99.90;;;;;;4873353;29;20056;-68
2022/10/26 11:33:04;;;;;;;10.45;6.03;;;18.10;99.90;;;;;;4914072;29;20166;-68
2022/10/26 11:35:41;;;;;;;11.10;7.15;;;18.30;99.90;;;;;;4933241;29;20134;-68
2022/10/26 11:38:19;;;;;;;10.52;6.40;;;18.30;99.90;;;;;;4933036;29;20052;-68
2022/10/26 11:40:58;;;;;;;16.13;6.82;;;18.50;99.90;;;;;;4930101;29;20075;-68
2022/10/26 11:43:56;;;;;;;21.20;7.35;;;18.50;99.90;;;;;;4930244;29;20342;-69
2022/10/26 11:46:31;;;;;;;14.40;7.38;;;18.60;99.90;;;;;;4931899;29;20063;-69
2022/10/26 11:49:34;;;;;;;13.18;7.80;;;18.60;99.90;;;;;;4931409;29;20110;-69
2022/10/26 11:52:18;;;;;;;14.60;7.85;;;18.70;99.90;;;;;;4930569;29;20040;-68
2022/10/26 11:54:55;;;;;;;16.98;7.85;;;18.70;99.90;;;;;;4931448;29;20058;-69
2022/10/26 11:57:23;;;;;;;15.82;7.70;;;18.70;99.90;;;;;;4929962;29;20649;-70
2022/10/26 11:59:50;;;;;;;;;;;18.70;99.90;;;;;;4933594;29;20059;-70
2022/10/26 12:02:18;;;;;;;11.48;7.63;;;18.70;99.90;;;;;;4931381;29;20002;-70
2022/10/26 12:04:47;;;;;;;11.05;7.57;;;18.70;99.90;;;;;;4931885;29;20492;-70
2022/10/26 12:07:20;;;;;;;11.88;7.55;;;18.80;99.90;;;;;;4933189;29;20043;-70
2022/10/26 12:09:46;;;;;;;12.52;7.60;;;18.80;99.90;;;;;;4931145;29;20116;-70
2022/10/26 12:12:18;;;;;;;13.13;7.30;;;18.90;99.90;;;;;;4944436;29;20051;-71
2022/10/26 12:15:25;;;;;;;11.73;6.22;;;19.00;99.90;;;;;;4935385;29;20162;-71
2022/10/26 12:18:06;;;;;;;12.45;7.20;;;19.00;99.90;;;;;;4931365;29;20107;-72
2022/10/26 12:20:52;;;;;;;8.93;6.60;;;19.10;99.90;;;;;;4930555;29;20114;-71
2022/10/26 12:23:19;;;;;;;14.00;7.30;;;19.20;99.90;;;;;;4932767;29;20060;-71
2022/10/26 12:25:44;;;;;;;9.13;6.60;;;19.30;99.90;;;;;;4931659;29;20050;-71
2022/10/26 12:28:35;;;;;;;12.23;7.13;;;19.30;99.90;;;;;;4931013;29;20055;-71
2022/10/26 12:31:35;;;;;;;13.05;7.03;;;19.30;99.90;;;;;;4932719;29;20051;-71
2022/10/26 12:34:10;;;;;;;6.80;6.00;;;19.20;99.90;;;;;;4930591;29;20055;-71
2022/10/26 12:36:49;;;;;;;14.38;7.95;;;19.10;99.90;;;;;;4931161;29;20144;-71
2022/10/26 12:39:47;;;;;;;13.52;6.93;;;19.10;99.90;;;;;;4931463;29;20048;-72
2022/10/26 12:42:16;;;;;;;11.93;8.43;;;19.20;99.90;;;;;;4919934;29;20060;-72
2022/10/26 12:44:44;;;;;;;17.00;8.07;;;19.10;99.90;;;;;;4931482;29;20054;-71
2022/10/26 12:47:30;;;;;;;13.70;7.82;;;19.10;99.90;;;;;;4931722;29;20539;-72
2022/10/26 12:50:04;;;;;;;22.20;8.27;;;19.20;99.90;;;;;;4931497;29;20052;-72
2022/10/26 12:52:42;;;;;;;16.77;8.75;;;19.20;99.90;;;;;;4930564;29;20059;-72
2022/10/26 12:55:11;;;;;;;9.82;6.90;;;19.20;99.90;;;;;;4932335;29;20044;-72
2022/10/26 12:57:59;;;;;;;13.43;8.63;;;19.20;99.90;;;;;;4946679;29;20052;-72
2022/10/26 13:00:26;;;;;;;12.05;8.02;;;19.20;99.90;;;;;;4944660;28;20051;-73